createdAt,value
2018-08-24T00:00:51.102Z,56.09
2018-08-24T00:15:51.124Z,56.26
2018-08-24T00:30:50.884Z,52.04
2018-08-24T00:45:53.340Z,50.32
2018-08-24T01:00:52.416Z,49.31
2018-08-24T01:15:56.109Z,48.73
2018-08-24T01:30:50.150Z,47.65
2018-08-24T01:45:54.392Z,46.52
2018-08-24T02:00:50.952Z,47.05
2018-08-24T02:15:50.922Z,46.13
2018-08-24T02:30:50.856Z,46.47
2018-08-24T02:45:52.360Z,46.96
2018-08-24T03:00:50.296Z,46.39
2018-08-24T03:15:50.297Z,46.35
2018-08-24T03:30:50.188Z,47.16
2018-08-24T03:45:50.073Z,47.35
2018-08-24T04:00:52.525Z,48.46
2018-08-24T04:15:50.661Z,48.06
2018-08-24T04:30:50.616Z,46.80
2018-08-24T04:45:50.847Z,46.96
2018-08-24T05:00:51.081Z,47.12
2018-08-24T05:15:53.098Z,46.00
2018-08-24T05:30:51.054Z,46.15
2018-08-24T05:45:51.090Z,44.82
2018-08-24T06:00:56.470Z,43.36
2018-08-24T06:15:52.425Z,42.49
2018-08-24T06:30:50.393Z,41.81
2018-08-24T06:45:50.381Z,41.80
2018-08-24T07:00:50.880Z,41.16
2018-08-24T07:15:53.628Z,40.24
2018-08-24T07:30:50.871Z,39.27
2018-08-24T07:45:50.856Z,38.00
2018-08-24T08:00:50.279Z,37.18
2018-08-24T08:15:50.214Z,36.70
2018-08-24T08:30:52.312Z,38.11
2018-08-24T08:45:50.371Z,36.42
2018-08-24T09:00:50.182Z,36.91
2018-08-24T09:15:50.601Z,36.89
2018-08-24T09:30:55.974Z,35.96
2018-08-24T09:45:50.523Z,35.11
2018-08-24T10:15:51.338Z,34.64
2018-08-24T10:30:51.493Z,35.63
2018-08-24T10:45:50.969Z,35.66
2018-08-24T11:00:50.317Z,35.26
2018-08-24T11:15:51.388Z,35.87
2018-08-24T11:30:50.447Z,35.59
2018-08-24T11:45:50.380Z,35.05
2018-08-24T12:00:50.885Z,34.59
2018-08-24T12:15:50.804Z,36.49
2018-08-24T12:30:50.879Z,35.00
2018-08-24T12:45:50.789Z,35.95
2018-08-24T13:00:50.153Z,34.81
2018-08-24T13:15:50.361Z,35.59
2018-08-24T13:30:50.428Z,35.41
2018-08-24T13:45:51.411Z,35.50
2018-08-24T14:00:50.069Z,36.34
2018-08-24T14:15:50.076Z,39.13
2018-08-24T14:30:50.563Z,40.24
2018-08-24T14:45:50.509Z,40.51
2018-08-24T15:00:52.239Z,40.36
2018-08-24T15:15:50.936Z,41.70
2018-08-24T15:30:51.638Z,41.53
2018-08-24T15:45:50.876Z,41.65
2018-08-24T16:00:50.341Z,41.53
2018-08-24T16:15:50.313Z,42.78
2018-08-24T16:30:53.507Z,43.64
2018-08-24T16:45:50.320Z,44.74
2018-08-24T17:00:50.747Z,44.35
2018-08-24T17:15:52.934Z,42.69
2018-08-24T17:30:50.723Z,46.75
2018-08-24T17:45:51.164Z,45.13
2018-08-24T18:00:51.380Z,44.92
2018-08-24T18:15:51.246Z,44.46
2018-08-24T18:30:51.052Z,44.35
2018-08-24T18:45:50.359Z,42.28
2018-08-24T19:00:50.629Z,41.87
2018-08-24T19:15:50.500Z,41.31
2018-08-24T19:30:50.795Z,42.18
2018-08-24T19:45:51.071Z,43.12
2018-08-24T20:00:51.035Z,43.05
2018-08-24T20:15:56.054Z,44.59
2018-08-24T20:30:50.716Z,42.83
2018-08-24T20:45:51.245Z,42.85
2018-08-24T21:00:51.162Z,42.89
2018-08-24T21:15:54.446Z,43.29
2018-08-24T21:30:53.407Z,43.18
2018-08-24T21:45:49.820Z,42.37
2018-08-24T22:00:50.327Z,41.88
2018-08-24T22:15:50.542Z,42.43
2018-08-24T22:30:50.793Z,42.03
2018-08-24T22:45:51.132Z,42.76
2018-08-24T23:00:51.072Z,42.30
2018-08-24T23:15:51.148Z,42.47
2018-08-24T23:30:51.294Z,42.26
2018-08-24T23:45:50.488Z,42.40
